createdAt,value
2017-07-11T00:00:03.212Z,0
2017-07-11T00:01:17.803Z,0
2017-07-11T00:02:03.258Z,0
2017-07-11T00:03:02.931Z,0
2017-07-11T00:04:18.216Z,0
2017-07-11T00:05:02.988Z,0
2017-07-11T00:06:17.955Z,0
2017-07-11T00:07:03.698Z,0
2017-07-11T00:08:03.706Z,0
2017-07-11T00:09:03.737Z,0
2017-07-11T00:10:03.753Z,0
2017-07-11T00:11:03.806Z,0
2017-07-11T00:12:03.805Z,0
2017-07-11T00:13:03.862Z,0
2017-07-11T00:14:03.832Z,0
2017-07-11T00:15:03.565Z,0
2017-07-11T00:16:03.580Z,0
2017-07-11T00:17:18.219Z,0
2017-07-11T00:18:03.963Z,0
2017-07-11T00:19:18.254Z,0
2017-07-11T00:20:18.592Z,0
2017-07-11T00:22:03.795Z,0
2017-07-11T00:23:03.448Z,0
2017-07-11T00:24:02.841Z,0
2017-07-11T00:25:04.135Z,0
2017-07-11T00:26:03.502Z,0
2017-07-11T00:28:03.889Z,0
2017-07-11T00:29:18.813Z,0
2017-07-11T00:30:03.940Z,0
2017-07-11T00:31:04.295Z,0
2017-07-11T00:32:18.279Z,0
2017-07-11T00:33:04.004Z,0
2017-07-11T00:34:04.349Z,0
2017-07-11T00:35:04.068Z,0
2017-07-11T00:36:04.395Z,0
2017-07-11T00:37:19.042Z,0
2017-07-11T00:40:04.493Z,0
2017-07-11T00:41:04.510Z,0
2017-07-11T00:42:04.231Z,0
2017-07-11T00:43:03.937Z,0
2017-07-11T00:44:04.583Z,0
2017-07-11T00:45:04.629Z,0
2017-07-11T00:46:04.644Z,0
2017-07-11T00:47:04.371Z,0
2017-07-11T00:48:04.035Z,0
2017-07-11T00:49:04.095Z,0
2017-07-11T00:50:04.420Z,0
2017-07-11T00:51:04.756Z,0
2017-07-11T00:52:04.790Z,0
2017-07-11T00:53:04.191Z,0
2017-07-11T00:54:04.858Z,0
2017-07-11T00:55:04.544Z,0
2017-07-11T00:56:04.305Z,0
2017-07-11T00:57:04.929Z,0
2017-07-11T00:58:04.930Z,0
2017-07-11T00:59:04.650Z,0
2017-07-11T01:00:04.641Z,0
2017-07-11T01:01:04.388Z,0
2017-07-11T01:02:04.385Z,0
2017-07-11T01:03:04.756Z,0
2017-07-11T01:04:19.684Z,0
2017-07-11T01:05:04.830Z,0
2017-07-11T01:06:04.811Z,0
2017-07-11T01:07:04.882Z,0
2017-07-11T01:08:19.789Z,0
2017-07-11T01:09:04.893Z,0
2017-07-11T01:10:04.590Z,0
2017-07-11T01:11:04.941Z,0
2017-07-11T01:12:05.269Z,0
2017-07-11T01:13:05.005Z,0
2017-07-11T01:14:05.367Z,0
2017-07-11T01:15:04.397Z,0
2017-07-11T01:16:04.747Z,0
2017-07-11T01:17:05.090Z,0
2017-07-11T01:19:05.144Z,0
2017-07-11T01:20:20.086Z,0
2017-07-11T01:21:05.178Z,0
2017-07-11T01:23:04.906Z,0
2017-07-11T01:24:04.626Z,0
2017-07-11T01:26:05.307Z,0
2017-07-11T01:27:05.338Z,0
2017-07-11T01:28:05.346Z,0
2017-07-11T01:29:05.366Z,0
2017-07-11T01:30:20.311Z,0
2017-07-11T01:31:05.421Z,0
2017-07-11T01:32:05.438Z,0
2017-07-11T01:33:05.483Z,0
2017-07-11T01:34:05.815Z,0
2017-07-11T01:35:05.539Z,0
2017-07-11T01:36:19.816Z,0
2017-07-11T01:37:20.503Z,0
2017-07-11T01:38:20.520Z,0
2017-07-11T01:40:05.963Z,0
2017-07-11T01:41:05.983Z,0
2017-07-11T01:42:20.310Z,0
2017-07-11T01:43:05.713Z,0
2017-07-11T01:44:05.434Z,0
2017-07-11T01:46:05.815Z,0
2017-07-11T01:47:20.728Z,0
2017-07-11T01:48:06.160Z,0
2017-07-11T01:49:05.864Z,0
2017-07-11T01:50:05.583Z,0
2017-07-11T01:51:06.237Z,0
2017-07-11T01:52:20.847Z,0
2017-07-11T01:53:05.654Z,0
2017-07-11T01:54:06.291Z,0
2017-07-11T01:55:06.329Z,0
2017-07-11T01:56:20.951Z,0
2017-07-11T01:57:05.755Z,0
2017-07-11T01:58:05.766Z,0
2017-07-11T01:59:06.432Z,0
2017-07-11T02:01:06.146Z,0
2017-07-11T02:02:05.872Z,0
2017-07-11T02:04:06.537Z,0
2017-07-11T02:05:06.577Z,0
2017-07-11T02:06:06.268Z,0
2017-07-11T02:07:20.593Z,0
2017-07-11T02:08:06.343Z,0
2017-07-11T02:09:20.943Z,0
2017-07-11T02:10:06.702Z,0
2017-07-11T02:11:06.067Z,0
2017-07-11T02:12:06.742Z,0
2017-07-11T02:13:21.043Z,0
2017-07-11T02:14:21.406Z,0
2017-07-11T02:15:06.190Z,0
2017-07-11T02:16:06.503Z,0
2017-07-11T02:17:06.866Z,0
2017-07-11T02:18:06.859Z,0
2017-07-11T02:19:06.922Z,0
2017-07-11T02:20:06.941Z,0
2017-07-11T02:21:06.973Z,0
2017-07-11T02:22:06.344Z,0
2017-07-11T02:23:06.716Z,0
2017-07-11T02:24:20.985Z,0
2017-07-11T02:25:21.331Z,0
2017-07-11T02:26:06.758Z,0
2017-07-11T02:27:21.382Z,0
2017-07-11T02:28:21.745Z,0
2017-07-11T02:29:21.777Z,0
2017-07-11T02:30:07.180Z,0
2017-07-11T02:31:06.561Z,0
2017-07-11T02:32:07.244Z,0
2017-07-11T02:33:07.247Z,0
2017-07-11T02:34:06.648Z,0
2017-07-11T02:35:07.285Z,0
2017-07-11T02:36:21.939Z,0
2017-07-11T02:37:07.320Z,0
2017-07-11T02:38:07.058Z,0
2017-07-11T02:39:36.285Z,0
2017-07-11T02:40:07.094Z,0
2017-07-11T02:41:07.195Z,0
2017-07-11T02:42:06.823Z,0
2017-07-11T02:43:07.254Z,0
2017-07-11T02:44:07.198Z,0
2017-07-11T02:45:21.504Z,0
2017-07-11T02:46:07.562Z,0
2017-07-11T02:47:07.267Z,0
2017-07-11T02:48:07.632Z,0
2017-07-11T02:49:07.017Z,0
2017-07-11T02:50:07.041Z,0
2017-07-11T02:51:22.347Z,0
2017-07-11T02:52:07.374Z,0
2017-07-11T02:54:07.746Z,0
2017-07-11T02:55:36.668Z,0
2017-07-11T02:56:07.815Z,0
2017-07-11T02:57:07.839Z,0
2017-07-11T02:58:07.870Z,0
2017-07-11T02:59:22.482Z,0
2017-07-11T03:00:07.886Z,0
2017-07-11T03:01:07.304Z,0
2017-07-11T03:02:07.622Z,0
2017-07-11T03:03:07.661Z,0
2017-07-11T03:04:07.665Z,0
2017-07-11T03:06:07.756Z,0
2017-07-11T03:07:07.761Z,0
2017-07-11T03:08:07.797Z,0
2017-07-11T03:09:22.395Z,5
2017-07-11T03:10:08.149Z,5
2017-07-11T03:11:22.770Z,5
2017-07-11T03:12:07.893Z,5
2017-07-11T03:13:22.831Z,5
2017-07-11T03:15:07.956Z,5
2017-07-11T03:16:07.971Z,5
2017-07-11T03:17:08.315Z,5
2017-07-11T03:18:22.609Z,10
2017-07-11T03:19:08.056Z,10
2017-07-11T03:20:08.088Z,10
2017-07-11T03:21:07.464Z,10
2017-07-11T03:22:08.162Z,10
2017-07-11T03:23:22.102Z,10
2017-07-11T03:24:07.856Z,10
2017-07-11T03:25:08.182Z,15
2017-07-11T03:26:08.210Z,15
2017-07-11T03:27:37.445Z,15
2017-07-11T03:28:08.578Z,15
2017-07-11T03:29:08.290Z,15
2017-07-11T03:30:08.003Z,10
2017-07-11T03:33:08.680Z,10
2017-07-11T03:34:08.720Z,10
2017-07-11T03:35:08.416Z,15
2017-07-11T03:36:08.459Z,15
2017-07-11T03:37:08.153Z,15
2017-07-11T03:38:23.115Z,15
2017-07-11T03:39:23.440Z,15
2017-07-11T03:40:23.467Z,20
2017-07-11T03:41:08.894Z,20
2017-07-11T03:42:23.489Z,20
2017-07-11T03:43:08.950Z,20
2017-07-11T03:44:08.335Z,25
2017-07-11T03:45:09.005Z,30
2017-07-11T03:46:09.008Z,30
2017-07-11T03:47:23.633Z,30
2017-07-11T03:48:23.329Z,30
2017-07-11T03:49:09.052Z,35
2017-07-11T03:50:08.168Z,40
2017-07-11T03:51:08.826Z,40
2017-07-11T03:52:08.864Z,40
2017-07-11T03:53:09.177Z,40
2017-07-11T03:54:09.303Z,45
2017-07-11T03:55:09.223Z,45
2017-07-11T03:56:08.934Z,40
2017-07-11T03:57:08.960Z,45
2017-07-11T03:58:08.972Z,45
2017-07-11T03:59:09.302Z,45
2017-07-11T04:00:08.712Z,45
2017-07-11T04:01:08.744Z,45
2017-07-11T04:02:09.417Z,50
2017-07-11T04:03:09.101Z,50
2017-07-11T04:04:08.818Z,55
2017-07-11T04:05:23.423Z,55
2017-07-11T04:06:24.093Z,55
2017-07-11T04:07:09.520Z,55
2017-07-11T04:08:24.156Z,60
2017-07-11T04:09:09.257Z,60
2017-07-11T04:10:24.172Z,55
2017-07-11T04:11:08.670Z,60
2017-07-11T04:12:24.220Z,60
2017-07-11T04:13:09.357Z,60
2017-07-11T04:14:24.275Z,65
2017-07-11T04:16:09.117Z,65
2017-07-11T04:17:09.441Z,65
2017-07-11T04:18:24.074Z,65
2017-07-11T04:19:09.463Z,65
2017-07-11T04:20:38.712Z,75
2017-07-11T04:21:09.225Z,70
2017-07-11T04:22:09.237Z,75
2017-07-11T04:23:09.259Z,80
2017-07-11T04:24:09.940Z,80
2017-07-11T04:25:24.232Z,75
2017-07-11T04:26:09.666Z,80
2017-07-11T04:28:10.092Z,80
2017-07-11T04:29:10.054Z,85
2017-07-11T04:31:09.779Z,90
2017-07-11T04:32:24.390Z,95
2017-07-11T04:33:09.834Z,95
2017-07-11T04:34:09.593Z,95
2017-07-11T04:35:09.887Z,115
2017-07-11T04:36:10.229Z,110
2017-07-11T04:37:10.252Z,115
2017-07-11T04:38:10.259Z,115
2017-07-11T04:40:09.995Z,115
2017-07-11T04:41:10.032Z,120
2017-07-11T04:42:09.723Z,95
2017-07-11T04:43:10.455Z,100
2017-07-11T04:44:10.106Z,95
2017-07-11T04:45:24.403Z,100
2017-07-11T04:46:25.045Z,100
2017-07-11T04:47:24.763Z,105
2017-07-11T04:48:25.115Z,105
2017-07-11T04:49:10.198Z,115
2017-07-11T04:50:09.934Z,120
2017-07-11T04:52:24.579Z,130
2017-07-11T04:53:09.685Z,130
2017-07-11T04:54:10.349Z,115
2017-07-11T04:55:10.354Z,110
2017-07-11T04:56:10.412Z,115
2017-07-11T04:58:10.736Z,130
2017-07-11T04:59:10.774Z,165
2017-07-11T05:00:25.093Z,130
2017-07-11T05:01:10.515Z,135
2017-07-11T05:02:25.120Z,145
2017-07-11T05:03:10.578Z,175
2017-07-11T05:04:10.943Z,135
2017-07-11T05:05:10.292Z,130
2017-07-11T05:06:10.616Z,125
2017-07-11T05:07:10.989Z,135
2017-07-11T05:08:11.006Z,140
2017-07-11T05:09:25.305Z,145
2017-07-11T05:10:11.041Z,155
2017-07-11T05:11:11.068Z,185
2017-07-11T05:12:11.113Z,190
2017-07-11T05:13:10.817Z,195
2017-07-11T05:14:10.843Z,195
2017-07-11T05:15:10.846Z,190
2017-07-11T05:16:11.224Z,225
2017-07-11T05:17:25.826Z,185
2017-07-11T05:18:10.951Z,190
2017-07-11T05:19:10.646Z,205
2017-07-11T05:20:10.655Z,215
2017-07-11T05:22:10.719Z,225
2017-07-11T05:23:10.099Z,225
2017-07-11T05:24:11.079Z,230
2017-07-11T05:25:10.788Z,230
2017-07-11T05:26:11.457Z,225
2017-07-11T05:27:25.787Z,230
2017-07-11T05:28:11.473Z,225
2017-07-11T05:29:11.207Z,230
2017-07-11T05:30:11.245Z,245
2017-07-11T05:31:11.261Z,235
2017-07-11T05:32:11.270Z,225
2017-07-11T05:33:11.313Z,220
2017-07-11T05:34:25.607Z,205
2017-07-11T05:35:10.409Z,210
2017-07-11T05:36:11.700Z,215
2017-07-11T05:37:11.727Z,210
2017-07-11T05:38:11.746Z,215
2017-07-11T05:39:11.133Z,200
2017-07-11T05:40:11.198Z,200
2017-07-11T05:41:11.824Z,180
2017-07-11T05:42:25.812Z,180
2017-07-11T05:43:11.246Z,180
2017-07-11T05:44:11.896Z,200
2017-07-11T05:45:11.607Z,215
2017-07-11T05:46:11.306Z,215
2017-07-11T05:47:11.670Z,215
2017-07-11T05:48:26.609Z,205
2017-07-11T05:49:26.621Z,210
2017-07-11T05:50:26.325Z,210
2017-07-11T05:51:11.736Z,205
2017-07-11T05:52:11.794Z,205
2017-07-11T05:53:11.809Z,205
2017-07-11T05:54:12.170Z,210
2017-07-11T05:55:11.526Z,220
2017-07-11T05:56:11.578Z,235
2017-07-11T05:57:11.892Z,250
2017-07-11T05:58:26.847Z,275
2017-07-11T05:59:11.320Z,275
2017-07-11T06:00:12.137Z,290
2017-07-11T06:01:11.757Z,305
2017-07-11T06:02:11.725Z,325
2017-07-11T06:03:12.371Z,330
2017-07-11T06:04:11.760Z,320
2017-07-11T06:05:27.043Z,340
2017-07-11T06:06:12.439Z,350
2017-07-11T06:07:11.854Z,380
2017-07-11T06:08:12.191Z,385
2017-07-11T06:09:11.911Z,445
2017-07-11T06:10:11.918Z,470
2017-07-11T06:11:12.582Z,450
2017-07-11T06:12:12.609Z,485
2017-07-11T06:13:12.310Z,495
2017-07-11T06:14:11.693Z,440
2017-07-11T06:15:12.679Z,405
2017-07-11T06:16:27.313Z,405
2017-07-11T06:17:12.758Z,375
2017-07-11T06:18:12.428Z,385
2017-07-11T06:19:12.479Z,420
2017-07-11T06:20:12.793Z,455
2017-07-11T06:22:12.554Z,460
2017-07-11T06:23:11.938Z,430
2017-07-11T06:24:27.543Z,395
2017-07-11T06:25:27.219Z,290
2017-07-11T06:26:12.349Z,255
2017-07-11T06:27:27.269Z,245
2017-07-11T06:29:12.430Z,245
2017-07-11T06:30:27.347Z,295
2017-07-11T06:31:12.490Z,290
2017-07-11T06:32:12.509Z,265
2017-07-11T06:33:27.439Z,255
2017-07-11T06:34:12.260Z,250
2017-07-11T06:35:12.606Z,240
2017-07-11T06:36:12.642Z,285
2017-07-11T06:37:27.571Z,285
2017-07-11T06:38:13.002Z,295
2017-07-11T06:39:27.286Z,375
2017-07-11T06:40:13.027Z,360
2017-07-11T06:41:12.119Z,380
2017-07-11T06:42:12.140Z,355
2017-07-11T06:43:13.097Z,380
2017-07-11T06:45:27.446Z,370
2017-07-11T06:46:13.502Z,395
2017-07-11T06:47:27.801Z,360
2017-07-11T06:48:27.837Z,385
2017-07-11T06:49:28.201Z,375
2017-07-11T06:50:13.652Z,355
2017-07-11T06:51:27.947Z,400
2017-07-11T06:52:42.601Z,435
2017-07-11T06:53:13.368Z,465
2017-07-11T06:54:28.089Z,410
2017-07-11T06:55:28.342Z,495
2017-07-11T06:56:28.396Z,580
2017-07-11T06:57:28.402Z,505
2017-07-11T06:58:13.193Z,515
2017-07-11T06:59:13.546Z,515
2017-07-11T07:00:14.382Z,540
2017-07-11T07:01:13.612Z,410
2017-07-11T07:03:27.939Z,610
2017-07-11T07:04:13.684Z,610
2017-07-11T07:05:13.432Z,600
2017-07-11T07:06:13.744Z,585
2017-07-11T07:07:13.131Z,565
2017-07-11T07:08:14.112Z,530
2017-07-11T07:09:13.832Z,545
2017-07-11T07:10:13.525Z,540
2017-07-11T07:11:13.255Z,550
2017-07-11T07:12:28.491Z,520
2017-07-11T07:13:14.270Z,510
2017-07-11T07:14:13.957Z,495
2017-07-11T07:15:28.911Z,485
2017-07-11T07:16:14.077Z,460
2017-07-11T07:17:14.047Z,450
2017-07-11T07:20:14.593Z,405
2017-07-11T07:21:14.171Z,375
2017-07-11T07:22:13.882Z,355
2017-07-11T07:23:13.589Z,345
2017-07-11T07:24:28.854Z,370
2017-07-11T07:25:28.892Z,430
2017-07-11T07:26:29.225Z,450
2017-07-11T07:27:28.630Z,460
2017-07-11T07:28:28.992Z,515
2017-07-11T07:30:14.444Z,375
2017-07-11T07:31:14.443Z,430
2017-07-11T07:32:29.414Z,510
2017-07-11T07:33:14.203Z,625
2017-07-11T07:34:14.880Z,680
2017-07-11T07:35:14.263Z,595
2017-07-11T07:36:28.580Z,585
2017-07-11T07:37:14.651Z,630
2017-07-11T07:38:14.582Z,665
2017-07-11T07:39:15.019Z,715
2017-07-11T07:40:29.670Z,735
2017-07-11T07:41:14.742Z,780
2017-07-11T07:42:14.790Z,785
2017-07-11T07:43:14.827Z,795
2017-07-11T07:44:15.183Z,845
2017-07-11T07:45:15.269Z,855
2017-07-11T07:46:14.900Z,820
2017-07-11T07:47:15.354Z,850
2017-07-11T07:48:14.651Z,895
2017-07-11T07:49:15.342Z,905
2017-07-11T07:50:15.356Z,870
2017-07-11T07:51:15.649Z,840
2017-07-11T07:52:14.783Z,930
2017-07-11T07:53:15.138Z,860
2017-07-11T07:54:15.144Z,880
2017-07-11T07:55:15.252Z,875
2017-07-11T07:56:29.817Z,885
2017-07-11T07:57:15.606Z,860
2017-07-11T07:58:29.907Z,875
2017-07-11T07:59:15.331Z,885
2017-07-11T08:01:15.701Z,900
2017-07-11T08:02:30.353Z,820
2017-07-11T08:03:15.480Z,835
2017-07-11T08:04:15.743Z,810
2017-07-11T08:05:15.523Z,835
2017-07-11T08:06:15.574Z,850
2017-07-11T08:07:30.517Z,740
2017-07-11T08:08:15.705Z,720
2017-07-11T08:10:30.621Z,760
2017-07-11T08:11:16.046Z,755
2017-07-11T08:12:30.370Z,700
2017-07-11T08:13:30.098Z,685
2017-07-11T08:14:30.741Z,635
2017-07-11T08:15:15.572Z,625
2017-07-11T08:16:15.910Z,455
2017-07-11T08:17:16.263Z,640
2017-07-11T08:18:16.316Z,385
2017-07-11T08:19:16.350Z,370
2017-07-11T08:20:30.641Z,520
2017-07-11T08:21:30.697Z,530
2017-07-11T08:22:16.112Z,535
2017-07-11T08:23:30.427Z,515
2017-07-11T08:24:16.500Z,525
2017-07-11T08:25:15.956Z,505
2017-07-11T08:26:15.944Z,515
2017-07-11T08:27:31.198Z,525
2017-07-11T08:28:16.321Z,545
2017-07-11T08:29:31.270Z,490
2017-07-11T08:30:16.756Z,505
2017-07-11T08:31:16.478Z,510
2017-07-11T08:32:16.757Z,475
2017-07-11T08:33:16.475Z,445
2017-07-11T08:34:31.116Z,465
2017-07-11T08:35:17.030Z,465
2017-07-11T08:36:16.296Z,470
2017-07-11T08:37:16.913Z,440
2017-07-11T08:38:16.713Z,455
2017-07-11T08:39:16.680Z,440
2017-07-11T08:40:17.049Z,385
2017-07-11T08:41:17.052Z,415
2017-07-11T08:42:16.589Z,465
2017-07-11T08:43:16.840Z,470
2017-07-11T08:44:16.865Z,470
2017-07-11T08:45:16.881Z,455
2017-07-11T08:46:17.240Z,435
2017-07-11T08:48:31.584Z,430
2017-07-11T08:49:16.737Z,435
2017-07-11T08:50:17.389Z,425
2017-07-11T08:51:17.094Z,455
2017-07-11T08:52:17.121Z,430
2017-07-11T08:53:17.486Z,380
2017-07-11T08:54:16.575Z,440
2017-07-11T08:55:17.547Z,460
2017-07-11T08:56:16.950Z,430
2017-07-11T08:57:17.300Z,445
2017-07-11T08:58:17.029Z,455
2017-07-11T08:59:31.978Z,455
2017-07-11T09:00:32.407Z,465
2017-07-11T09:01:17.449Z,470
2017-07-11T09:02:17.779Z,490
2017-07-11T09:03:32.090Z,445
2017-07-11T09:04:32.566Z,440
2017-07-11T09:05:17.938Z,435
2017-07-11T09:06:17.624Z,430
2017-07-11T09:07:32.554Z,435
2017-07-11T09:08:17.470Z,435
2017-07-11T09:09:32.304Z,415
2017-07-11T09:10:17.737Z,430
2017-07-11T09:11:18.098Z,425
2017-07-11T09:12:17.219Z,425
2017-07-11T09:13:18.175Z,440
2017-07-11T09:14:18.177Z,420
2017-07-11T09:15:32.948Z,375
2017-07-11T09:16:17.918Z,400
2017-07-11T09:18:18.013Z,395
2017-07-11T09:19:22.364Z,370
2017-07-11T09:20:33.066Z,375
2017-07-11T09:21:18.418Z,375
2017-07-11T09:23:32.766Z,385
2017-07-11T09:24:18.234Z,395
2017-07-11T09:25:18.227Z,375
2017-07-11T09:26:18.615Z,375
2017-07-11T09:27:18.608Z,345
2017-07-11T09:28:18.666Z,310
2017-07-11T09:29:18.366Z,365
2017-07-11T09:30:18.535Z,310
2017-07-11T09:32:18.781Z,360
2017-07-11T09:33:33.107Z,370
2017-07-11T09:34:18.587Z,375
2017-07-11T09:35:18.268Z,400
2017-07-11T09:36:18.619Z,400
2017-07-11T09:37:18.978Z,395
2017-07-11T09:38:18.692Z,385
2017-07-11T09:39:18.820Z,365
2017-07-11T09:40:18.097Z,335
2017-07-11T09:41:18.773Z,325
2017-07-11T09:42:18.816Z,280
2017-07-11T09:43:19.172Z,250
2017-07-11T09:44:19.207Z,265
2017-07-11T09:45:19.285Z,315
2017-07-11T09:46:19.252Z,330
2017-07-11T09:47:48.501Z,345
2017-07-11T09:48:19.331Z,350
2017-07-11T09:49:19.145Z,345
2017-07-11T09:51:19.094Z,345
2017-07-11T09:52:19.160Z,385
2017-07-11T09:53:19.200Z,355
2017-07-11T09:54:19.561Z,365
2017-07-11T09:55:19.277Z,340
2017-07-11T09:56:33.892Z,295
2017-07-11T09:57:19.298Z,290
2017-07-11T09:58:19.084Z,275
2017-07-11T10:00:19.726Z,265
2017-07-11T10:01:19.140Z,290
2017-07-11T10:02:48.668Z,320
2017-07-11T10:03:19.220Z,310
2017-07-11T10:04:33.819Z,360
2017-07-11T10:05:34.509Z,330
2017-07-11T10:06:19.594Z,330
2017-07-11T10:07:34.623Z,355
2017-07-11T10:08:19.655Z,385
2017-07-11T10:09:20.027Z,370
2017-07-11T10:10:34.341Z,350
2017-07-11T10:11:20.103Z,350
2017-07-11T10:12:19.488Z,375
2017-07-11T10:13:19.839Z,380
2017-07-11T10:14:19.872Z,385
2017-07-11T10:15:34.820Z,390
2017-07-11T10:16:19.632Z,390
2017-07-11T10:17:19.958Z,380
2017-07-11T10:18:19.702Z,390
2017-07-11T10:19:20.043Z,330
2017-07-11T10:20:20.379Z,385
2017-07-11T10:21:20.484Z,380
2017-07-11T10:22:19.823Z,365
2017-07-11T10:23:19.223Z,350
2017-07-11T10:24:20.555Z,355
2017-07-11T10:25:20.547Z,330
2017-07-11T10:26:20.587Z,320
2017-07-11T10:27:20.627Z,310
2017-07-11T10:28:20.351Z,320
2017-07-11T10:29:34.968Z,305
2017-07-11T10:30:20.410Z,305
2017-07-11T10:31:20.479Z,305
2017-07-11T10:32:20.797Z,290
2017-07-11T10:33:20.491Z,275
2017-07-11T10:34:50.064Z,310
2017-07-11T10:35:20.901Z,305
2017-07-11T10:36:20.618Z,305
2017-07-11T10:37:35.563Z,305
2017-07-11T10:38:20.709Z,305
2017-07-11T10:39:20.438Z,285
2017-07-11T10:40:21.049Z,240
2017-07-11T10:41:20.460Z,290
2017-07-11T10:42:35.556Z,315
2017-07-11T10:43:20.829Z,325
2017-07-11T10:44:20.846Z,325
2017-07-11T10:45:20.917Z,320
2017-07-11T10:46:21.231Z,320
2017-07-11T10:47:20.645Z,320
2017-07-11T10:48:20.992Z,320
2017-07-11T10:49:20.726Z,290
2017-07-11T10:50:50.256Z,315
2017-07-11T10:52:21.454Z,340
2017-07-11T10:53:20.831Z,310
2017-07-11T10:54:20.606Z,295
2017-07-11T10:55:35.182Z,275
2017-07-11T10:56:21.260Z,280
2017-07-11T10:57:21.273Z,280
2017-07-11T10:58:36.553Z,270
2017-07-11T11:00:21.423Z,250
2017-07-11T11:01:21.128Z,260
2017-07-11T11:02:36.357Z,275
2017-07-11T11:03:36.392Z,285
2017-07-11T11:05:21.220Z,285
2017-07-11T11:06:36.504Z,270
2017-07-11T11:07:21.914Z,255
2017-07-11T11:08:22.284Z,250
2017-07-11T11:09:21.992Z,255
2017-07-11T11:10:22.016Z,255
2017-07-11T11:11:36.648Z,260
2017-07-11T11:12:36.048Z,240
2017-07-11T11:13:21.801Z,230
2017-07-11T11:14:22.152Z,225
2017-07-11T11:15:22.279Z,225
2017-07-11T11:16:21.908Z,240
2017-07-11T11:17:22.217Z,235
2017-07-11T11:18:36.884Z,260
2017-07-11T11:19:22.009Z,295
2017-07-11T11:20:22.021Z,310
2017-07-11T11:21:22.099Z,310
2017-07-11T11:22:36.356Z,305
2017-07-11T11:23:21.161Z,285
2017-07-11T11:24:37.033Z,270
2017-07-11T11:25:22.491Z,280
2017-07-11T11:26:37.102Z,285
2017-07-11T11:27:22.232Z,285
2017-07-11T11:28:37.219Z,280
2017-07-11T11:29:22.291Z,275
2017-07-11T11:30:36.942Z,265
2017-07-11T11:31:22.715Z,275
2017-07-11T11:32:22.411Z,280
2017-07-11T11:33:23.022Z,275
2017-07-11T11:34:22.143Z,290
2017-07-11T11:35:22.785Z,270
2017-07-11T11:36:22.214Z,270
2017-07-11T11:37:37.467Z,260
2017-07-11T11:38:37.837Z,260
2017-07-11T11:39:37.276Z,250
2017-07-11T11:40:22.951Z,255
2017-07-11T11:41:37.281Z,240
2017-07-11T11:42:37.632Z,225
2017-07-11T11:43:22.480Z,210
2017-07-11T11:44:22.763Z,205
2017-07-11T11:45:23.117Z,200
2017-07-11T11:46:23.137Z,210
2017-07-11T11:48:23.261Z,235
2017-07-11T11:49:22.290Z,245
2017-07-11T11:50:23.249Z,240
2017-07-11T11:51:23.307Z,235
2017-07-11T11:52:23.064Z,245
2017-07-11T11:53:37.642Z,250
2017-07-11T11:55:23.128Z,225
2017-07-11T11:56:23.124Z,220
2017-07-11T11:57:23.496Z,215
2017-07-11T11:58:23.530Z,225
2017-07-11T11:59:38.147Z,210
2017-07-11T12:00:23.872Z,200
2017-07-11T12:02:23.328Z,185
2017-07-11T12:03:23.036Z,170
2017-07-11T12:04:38.043Z,175
2017-07-11T12:05:23.624Z,185
2017-07-11T12:06:23.817Z,225
2017-07-11T12:07:23.486Z,230
2017-07-11T12:08:23.855Z,260
2017-07-11T12:09:38.253Z,265
2017-07-11T12:10:38.186Z,240
2017-07-11T12:11:38.529Z,275
2017-07-11T12:12:23.342Z,270
2017-07-11T12:13:38.275Z,270
2017-07-11T12:14:38.608Z,275
2017-07-11T12:15:23.422Z,230
2017-07-11T12:16:24.084Z,240
2017-07-11T12:17:24.123Z,260
2017-07-11T12:18:24.335Z,305
2017-07-11T12:19:23.642Z,260
2017-07-11T12:20:23.559Z,250
2017-07-11T12:21:23.935Z,250
2017-07-11T12:22:23.720Z,245
2017-07-11T12:23:23.339Z,240
2017-07-11T12:24:23.998Z,235
2017-07-11T12:26:24.396Z,245
2017-07-11T12:27:24.430Z,305
2017-07-11T12:28:24.444Z,295
2017-07-11T12:29:24.487Z,290
2017-07-11T12:30:24.522Z,295
2017-07-11T12:31:38.808Z,275
2017-07-11T12:32:24.629Z,265
2017-07-11T12:33:39.209Z,250
2017-07-11T12:34:24.325Z,250
2017-07-11T12:35:24.343Z,250
2017-07-11T12:36:24.715Z,210
2017-07-11T12:37:24.522Z,200
2017-07-11T12:38:24.773Z,200
2017-07-11T12:39:24.167Z,210
2017-07-11T12:40:24.221Z,210
2017-07-11T12:41:39.450Z,210
2017-07-11T12:42:39.459Z,205
2017-07-11T12:43:54.119Z,195
2017-07-11T12:44:24.937Z,190
2017-07-11T12:45:39.275Z,190
2017-07-11T12:46:25.014Z,190
2017-07-11T12:47:25.011Z,240
2017-07-11T12:48:24.740Z,240
2017-07-11T12:49:24.761Z,240
2017-07-11T12:50:24.804Z,225
2017-07-11T12:51:24.824Z,185
2017-07-11T12:52:24.237Z,195
2017-07-11T12:53:24.878Z,200
2017-07-11T12:54:24.610Z,230
2017-07-11T12:55:25.314Z,225
2017-07-11T12:56:24.985Z,165
2017-07-11T12:57:39.600Z,160
2017-07-11T12:58:25.119Z,165
2017-07-11T12:59:25.394Z,185
2017-07-11T13:00:25.736Z,240
2017-07-11T13:01:24.194Z,250
2017-07-11T13:02:39.506Z,220
2017-07-11T13:03:25.190Z,250
2017-07-11T13:04:24.908Z,255
2017-07-11T13:05:25.555Z,235
2017-07-11T13:06:24.656Z,240
2017-07-11T13:07:25.642Z,245
2017-07-11T13:08:25.782Z,230
2017-07-11T13:09:39.984Z,165
2017-07-11T13:10:25.718Z,165
2017-07-11T13:11:25.763Z,160
2017-07-11T13:12:40.066Z,160
2017-07-11T13:13:25.526Z,160
2017-07-11T13:14:25.541Z,155
2017-07-11T13:15:25.571Z,150
2017-07-11T13:16:40.192Z,155
2017-07-11T13:17:25.969Z,160
2017-07-11T13:18:40.245Z,160
2017-07-11T13:19:25.683Z,170
2017-07-11T13:20:26.047Z,180
2017-07-11T13:21:40.341Z,190
2017-07-11T13:22:25.152Z,190
2017-07-11T13:23:25.367Z,190
2017-07-11T13:24:25.538Z,190
2017-07-11T13:25:25.902Z,195
2017-07-11T13:26:25.280Z,195
2017-07-11T13:27:25.606Z,205
2017-07-11T13:28:25.652Z,255
2017-07-11T13:29:25.975Z,220
2017-07-11T13:30:26.339Z,210
2017-07-11T13:31:40.968Z,205
2017-07-11T13:32:25.779Z,195
2017-07-11T13:33:25.156Z,195
2017-07-11T13:34:26.455Z,200
2017-07-11T13:35:26.147Z,235
2017-07-11T13:37:26.533Z,185
2017-07-11T13:38:41.176Z,165
2017-07-11T13:39:26.617Z,150
2017-07-11T13:40:26.672Z,140
2017-07-11T13:41:26.375Z,130
2017-07-11T13:42:41.294Z,125
2017-07-11T13:43:26.742Z,125
2017-07-11T13:44:41.455Z,120
2017-07-11T13:45:41.396Z,110
2017-07-11T13:46:41.432Z,105
2017-07-11T13:47:26.845Z,100
2017-07-11T13:48:26.616Z,95
2017-07-11T13:49:26.883Z,95
2017-07-11T13:50:26.638Z,90
2017-07-11T13:51:26.639Z,90
2017-07-11T13:52:27.012Z,85
2017-07-11T13:53:27.031Z,85
2017-07-11T13:54:26.744Z,80
2017-07-11T13:55:41.360Z,80
2017-07-11T13:56:26.805Z,80
2017-07-11T13:57:27.144Z,80
2017-07-11T13:58:26.853Z,80
2017-07-11T13:59:27.187Z,75
2017-07-11T14:00:41.533Z,75
2017-07-11T14:01:26.935Z,70
2017-07-11T14:02:27.311Z,65
2017-07-11T14:03:41.960Z,60
2017-07-11T14:04:26.771Z,55
2017-07-11T14:05:27.057Z,55
2017-07-11T14:06:42.154Z,50
2017-07-11T14:08:27.452Z,45
2017-07-11T14:09:27.202Z,45
2017-07-11T14:10:42.167Z,45
2017-07-11T14:11:27.246Z,50
2017-07-11T14:12:42.179Z,50
2017-07-11T14:13:27.277Z,55
2017-07-11T14:14:27.018Z,55
2017-07-11T14:15:27.337Z,60
2017-07-11T14:16:41.986Z,65
2017-07-11T14:17:42.012Z,70
2017-07-11T14:18:27.768Z,70
2017-07-11T14:19:27.142Z,70
2017-07-11T14:20:42.399Z,70
2017-07-11T14:21:26.905Z,65
2017-07-11T14:22:41.506Z,65
2017-07-11T14:23:41.878Z,60
2017-07-11T14:24:42.209Z,60
2017-07-11T14:25:27.969Z,60
2017-07-11T14:26:42.583Z,60
2017-07-11T14:27:28.026Z,60
2017-07-11T14:28:27.725Z,60
2017-07-11T14:30:27.826Z,65
2017-07-11T14:31:28.154Z,65
2017-07-11T14:32:42.772Z,70
2017-07-11T14:33:27.852Z,75
2017-07-11T14:34:27.908Z,85
2017-07-11T14:35:42.931Z,95
2017-07-11T14:36:27.959Z,105
2017-07-11T14:37:27.947Z,115
2017-07-11T14:38:27.686Z,125
2017-07-11T14:39:27.397Z,130
2017-07-11T14:40:28.126Z,140
2017-07-11T14:41:28.437Z,150
2017-07-11T14:42:28.438Z,155
2017-07-11T14:43:28.448Z,165
2017-07-11T14:44:28.474Z,170
2017-07-11T14:45:28.220Z,180
2017-07-11T14:46:28.548Z,185
2017-07-11T14:47:43.183Z,200
2017-07-11T14:48:42.892Z,230
2017-07-11T14:49:28.045Z,200
2017-07-11T14:50:28.339Z,215